Time;durP1;ratioP1;P1;durP2;ratioP2;P2;SDS_P1;SDS_P2;PMS_P1;PMS_P2;Temp;Humidity;BMP_temperature;BMP_pressure;BME280_temperature;BME280_humidity;BME280_pressure;Samples;Min_cycle;Max_cycle;Signal;HPM_P1;HPM_P2
2022/09/07 00:00:34;;;;;;;3.65;1.60;;;15.50;99.90;;;;;;5034470;28;20493;-71
2022/09/07 00:02:59;;;;;;;4.53;1.70;;;15.50;99.90;;;;;;5034502;28;20389;-71
2022/09/07 00:05:27;;;;;;;4.22;1.73;;;15.40;99.90;;;;;;5034370;28;20025;-71
2022/09/07 00:07:53;;;;;;;4.38;1.60;;;15.50;99.90;;;;;;5034283;28;20033;-71
2022/09/07 00:10:19;;;;;;;2.47;1.50;;;15.50;99.90;;;;;;5034373;28;20100;-71
2022/09/07 00:12:45;;;;;;;3.88;1.40;;;15.50;99.90;;;;;;5034306;28;20500;-71
2022/09/07 00:15:11;;;;;;;4.15;1.52;;;15.50;99.90;;;;;;5034248;28;20065;-71
2022/09/07 00:17:37;;;;;;;3.70;1.52;;;15.60;99.90;;;;;;5034186;28;20029;-71
2022/09/07 00:20:05;;;;;;;3.60;1.70;;;15.60;99.90;;;;;;5016458;28;20128;-71
2022/09/07 00:22:31;;;;;;;2.50;1.33;;;15.60;99.90;;;;;;5034094;28;20159;-71
2022/09/07 00:24:57;;;;;;;2.08;1.27;;;15.60;99.90;;;;;;5034209;28;20033;-71
2022/09/07 00:27:23;;;;;;;2.05;1.02;;;15.60;99.90;;;;;;5034030;28;20105;-71
2022/09/07 00:29:48;;;;;;;3.22;1.52;;;15.60;99.90;;;;;;5016256;28;20037;-71
2022/09/07 00:32:14;;;;;;;3.75;1.50;;;15.60;99.90;;;;;;5034076;28;20026;-71
2022/09/07 00:34:40;;;;;;;3.03;1.40;;;15.60;99.90;;;;;;5034233;28;20121;-71
2022/09/07 00:37:06;;;;;;;3.40;1.30;;;15.50;99.90;;;;;;5033831;28;20104;-71
2022/09/07 00:39:32;;;;;;;2.08;1.27;;;15.50;99.90;;;;;;5034010;28;20198;-71
2022/09/07 00:41:58;;;;;;;2.15;1.27;;;15.50;99.90;;;;;;5033738;28;20036;-71
2022/09/07 00:44:42;;;;;;;2.72;1.58;;;15.50;99.90;;;;;;5032387;28;20029;-71
2022/09/07 00:48:01;;;;;;;1.92;1.20;;;15.50;99.90;;;;;;5033606;28;20512;-71
2022/09/07 00:50:29;;;;;;;2.70;1.20;;;15.50;99.90;;;;;;5026155;28;20037;-71
2022/09/07 00:53:02;;;;;;;2.55;1.10;;;15.50;99.90;;;;;;5033600;28;20426;-71
2022/09/07 00:55:30;;;;;;;3.60;1.50;;;15.50;99.90;;;;;;5033572;28;20079;-71
2022/09/07 00:57:57;;;;;;;2.90;1.17;;;15.50;99.90;;;;;;5033709;28;20132;-71
2022/09/07 01:00:24;;;;;;;4.50;1.75;;;15.60;99.90;;;;;;5033417;28;20038;-71
2022/09/07 01:02:52;;;;;;;3.03;1.52;;;15.50;99.90;;;;;;5032765;28;20101;-71
2022/09/07 01:05:42;;;;;;;2.97;1.48;;;15.40;99.90;;;;;;5032256;28;20036;-71
2022/09/07 01:08:10;;;;;;;2.08;1.45;;;15.30;99.90;;;;;;5033420;28;20450;-71
2022/09/07 01:10:37;;;;;;;2.47;1.60;;;15.30;99.90;;;;;;5029877;28;20053;-71
2022/09/07 01:13:03;;;;;;;2.47;1.30;;;15.30;99.90;;;;;;5040246;28;20063;-71
2022/09/07 01:15:56;;;;;;;2.90;1.48;;;15.20;99.90;;;;;;5052556;28;20056;-71
2022/09/07 01:18:37;;;;;;;2.83;1.60;;;15.20;99.90;;;;;;5036304;28;20080;-71
2022/09/07 01:21:20;;;;;;;2.78;1.60;;;15.10;99.90;;;;;;5051732;28;20044;-71
2022/09/07 01:23:57;;;;;;;3.63;1.70;;;15.00;99.90;;;;;;5027625;28;20037;-72
2022/09/07 01:26:54;;;;;;;2.50;1.60;;;15.00;99.90;;;;;;5044340;28;20033;-71
2022/09/07 01:29:53;;;;;;;2.47;1.40;;;14.90;99.90;;;;;;5067800;28;20071;-71
2022/09/07 01:32:27;;;;;;;3.17;1.42;;;14.80;99.90;;;;;;5048267;28;20080;-72
2022/09/07 01:34:53;;;;;;;2.95;1.30;;;14.90;99.90;;;;;;5067661;28;20039;-71
2022/09/07 01:37:28;;;;;;;4.65;2.03;;;14.90;99.90;;;;;;5052829;28;20100;-72
2022/09/07 01:40:12;;;;;;;2.58;1.40;;;15.00;99.90;;;;;;5052914;28;20033;-72
2022/09/07 01:42:54;;;;;;;3.72;1.48;;;15.00;99.90;;;;;;5053060;28;20025;-72
2022/09/07 01:45:27;;;;;;;2.40;1.30;;;15.00;99.90;;;;;;5053114;28;20021;-72
2022/09/07 01:47:57;;;;;;;2.65;1.30;;;15.00;99.90;;;;;;5053181;28;20029;-72
2022/09/07 01:50:37;;;;;;;2.85;1.48;;;15.10;99.90;;;;;;5053359;28;20025;-71
2022/09/07 01:53:14;;;;;;;3.00;1.67;;;15.10;99.90;;;;;;5052918;28;20029;-72
2022/09/07 01:55:48;;;;;;;1.83;1.13;;;15.10;99.90;;;;;;5052856;28;20025;-71
2022/09/07 01:58:22;;;;;;;3.50;1.10;;;15.00;99.90;;;;;;5072155;28;20052;-71
2022/09/07 02:00:59;;;;;;;3.42;1.25;;;15.00;99.90;;;;;;5056726;28;20024;-72
2022/09/07 02:03:28;;;;;;;1.95;1.00;;;15.10;99.90;;;;;;5056971;28;20071;-72
2022/09/07 02:06:06;;;;;;;2.55;1.25;;;15.00;99.90;;;;;;5072013;28;20021;-72
2022/09/07 02:08:38;;;;;;;2.67;1.25;;;15.00;99.90;;;;;;5056751;28;20021;-72
2022/09/07 02:11:10;;;;;;;2.17;0.90;;;15.00;99.90;;;;;;5056573;28;20013;-72
2022/09/07 02:13:53;;;;;;;2.72;0.80;;;15.10;99.90;;;;;;5057174;28;20021;-72
2022/09/07 02:16:25;;;;;;;1.80;1.00;;;15.00;99.90;;;;;;5071924;28;20025;-72
2022/09/07 02:19:00;;;;;;;2.40;0.80;;;15.00;99.90;;;;;;5056592;28;20532;-72
2022/09/07 02:21:32;;;;;;;1.70;1.08;;;15.00;99.90;;;;;;5056450;28;20143;-72
2022/09/07 02:24:14;;;;;;;3.92;1.20;;;15.00;99.90;;;;;;5056862;28;20024;-72
2022/09/07 02:26:41;;;;;;;2.20;0.98;;;15.00;99.90;;;;;;5056308;28;20082;-72
2022/09/07 02:29:07;;;;;;;1.83;1.00;;;15.00;99.90;;;;;;5056110;28;20021;-71
2022/09/07 02:31:33;;;;;;;2.58;1.02;;;15.00;99.90;;;;;;5056165;28;20032;-72
2022/09/07 02:34:00;;;;;;;2.72;1.50;;;14.90;99.90;;;;;;5056108;28;20436;-72
2022/09/07 02:36:30;;;;;;;3.28;1.30;;;14.90;99.90;;;;;;5056019;28;20110;-72
2022/09/07 02:38:56;;;;;;;3.08;1.20;;;14.80;99.90;;;;;;5056268;28;20024;-72
2022/09/07 02:41:40;;;;;;;2.05;1.08;;;14.90;99.90;;;;;;5055978;28;20036;-72
2022/09/07 02:44:12;;;;;;;1.60;1.00;;;14.90;99.90;;;;;;5056279;28;20032;-72
2022/09/07 02:46:56;;;;;;;2.47;1.10;;;14.90;99.90;;;;;;5055858;28;20027;-72
2022/09/07 02:49:42;;;;;;;2.13;1.08;;;14.90;99.90;;;;;;5055853;28;20093;-72
2022/09/07 02:52:32;;;;;;;2.55;1.35;;;14.90;99.90;;;;;;5071248;28;20021;-72
2022/09/07 02:55:35;;;;;;;5.20;1.80;;;14.90;99.90;;;;;;5055712;28;20032;-72
2022/09/07 02:58:46;;;;;;;3.10;2.17;;;15.00;99.90;;;;;;5055643;28;20049;-72
2022/09/07 03:01:45;;;;;;;3.35;2.15;;;15.00;99.90;;;;;;5055592;28;20485;-72
2022/09/07 03:04:36;;;;;;;3.55;2.47;;;15.00;99.90;;;;;;5055577;28;20040;-72
2022/09/07 03:07:14;;;;;;;5.85;1.58;;;14.90;99.90;;;;;;5055551;28;20068;-72
2022/09/07 03:09:45;;;;;;;2.28;1.60;;;14.90;99.90;;;;;;5054627;28;20029;-72
2022/09/07 03:12:11;;;;;;;3.33;1.30;;;14.90;99.90;;;;;;5055724;28;20385;-72
2022/09/07 03:14:42;;;;;;;1.95;1.20;;;14.90;99.90;;;;;;5055617;28;20025;-72
2022/09/07 03:17:08;;;;;;;4.28;1.77;;;14.90;99.90;;;;;;5055633;28;20025;-72
2022/09/07 03:19:35;;;;;;;4.28;1.90;;;14.90;99.90;;;;;;5055115;28;20112;-72
2022/09/07 03:22:01;;;;;;;3.45;2.15;;;14.80;99.90;;;;;;5055440;28;20025;-72
2022/09/07 03:24:26;;;;;;;3.58;2.25;;;14.80;99.90;;;;;;5070496;28;20036;-72
2022/09/07 03:26:52;;;;;;;4.20;1.70;;;14.70;99.90;;;;;;5054124;28;20029;-72
2022/09/07 03:29:18;;;;;;;3.05;1.90;;;14.60;99.90;;;;;;5054981;28;20022;-72
2022/09/07 03:31:45;;;;;;;3.33;1.55;;;14.50;99.90;;;;;;5054987;28;20461;-72
2022/09/07 03:34:11;;;;;;;2.10;1.40;;;14.40;99.90;;;;;;5054960;28;20131;-72
2022/09/07 03:36:37;;;;;;;2.83;1.40;;;14.40;99.90;;;;;;5055208;28;20037;-73
2022/09/07 03:39:04;;;;;;;2.13;1.30;;;14.50;99.90;;;;;;5054861;28;20041;-72
2022/09/07 03:41:30;;;;;;;2.40;1.58;;;14.50;99.90;;;;;;5055158;28;20033;-72
2022/09/07 03:43:56;;;;;;;2.90;1.40;;;14.60;99.90;;;;;;5054754;28;20102;-72
2022/09/07 03:46:21;;;;;;;2.83;1.70;;;14.60;99.90;;;;;;5054990;28;20033;-72
2022/09/07 03:48:49;;;;;;;3.28;1.33;;;14.60;99.90;;;;;;5054931;28;20048;-72
2022/09/07 03:51:16;;;;;;;1.90;1.20;;;14.60;99.90;;;;;;5054953;28;20053;-72
2022/09/07 03:53:44;;;;;;;3.00;1.40;;;14.60;99.90;;;;;;5054595;28;20028;-72
2022/09/07 03:56:17;;;;;;;1.85;1.20;;;14.60;99.90;;;;;;5054818;28;20478;-72
2022/09/07 03:58:44;;;;;;;3.17;1.30;;;14.60;99.90;;;;;;5054705;28;20032;-72
2022/09/07 04:01:14;;;;;;;2.13;1.20;;;14.50;99.90;;;;;;5054451;28;20099;-72
2022/09/07 04:03:39;;;;;;;2.60;1.10;;;14.50;99.90;;;;;;5054430;28;20052;-72
2022/09/07 04:06:05;;;;;;;2.97;1.30;;;14.50;99.90;;;;;;5054833;28;20115;-72
2022/09/07 04:08:33;;;;;;;2.72;1.40;;;14.60;99.90;;;;;;5054448;28;20029;-72
2022/09/07 04:11:01;;;;;;;2.65;1.40;;;14.50;99.90;;;;;;5054581;28;20078;-72
2022/09/07 04:13:28;;;;;;;2.97;1.45;;;14.50;99.90;;;;;;5054221;28;20135;-72
2022/09/07 04:15:54;;;;;;;3.60;1.45;;;14.50;99.90;;;;;;5054155;28;20025;-72
2022/09/07 04:18:20;;;;;;;4.40;1.48;;;14.50;99.90;;;;;;5054062;28;20025;-72
2022/09/07 04:20:46;;;;;;;3.55;1.30;;;14.50;99.90;;;;;;5053988;28;20032;-72
2022/09/07 04:23:12;;;;;;;2.17;1.20;;;14.50;99.90;;;;;;5054072;28;20025;-72
2022/09/07 04:25:49;;;;;;;1.60;1.20;;;14.50;99.90;;;;;;5054005;28;20083;-72
2022/09/07 04:28:16;;;;;;;2.60;1.63;;;14.50;99.90;;;;;;5053937;28;20025;-72
2022/09/07 04:30:42;;;;;;;4.35;1.60;;;14.40;99.90;;;;;;5054125;28;20021;-72
2022/09/07 04:33:08;;;;;;;2.72;1.70;;;14.40;99.90;;;;;;5053838;28;20125;-72
2022/09/07 04:35:38;;;;;;;2.20;1.50;;;14.30;99.90;;;;;;5054086;28;20053;-72
2022/09/07 04:38:05;;;;;;;3.15;1.73;;;14.30;99.90;;;;;;5053728;28;20033;-72
2022/09/07 04:40:31;;;;;;;3.30;1.50;;;14.40;99.90;;;;;;5053999;28;20103;-72
2022/09/07 04:42:57;;;;;;;2.22;1.23;;;14.40;99.90;;;;;;5053689;28;20098;-72
2022/09/07 04:45:22;;;;;;;2.58;1.27;;;14.40;99.90;;;;;;5053608;28;20443;-72
2022/09/07 04:47:48;;;;;;;2.30;1.50;;;14.40;99.90;;;;;;5053527;28;20032;-72
2022/09/07 04:50:15;;;;;;;4.05;1.90;;;14.50;99.90;;;;;;5053574;28;20029;-72
2022/09/07 04:52:42;;;;;;;2.83;1.20;;;14.50;99.90;;;;;;5035951;28;20029;-72
2022/09/07 04:55:09;;;;;;;3.20;1.20;;;14.50;99.90;;;;;;5053789;28;20381;-72
2022/09/07 04:57:35;;;;;;;4.03;1.65;;;14.50;99.90;;;;;;5053450;28;20100;-72
2022/09/07 05:00:01;;;;;;;3.80;1.65;;;14.50;99.90;;;;;;5053605;28;20142;-72
2022/09/07 05:02:26;;;;;;;3.83;1.80;;;14.60;99.90;;;;;;5068802;28;20478;-72
2022/09/07 05:04:52;;;;;;;3.80;1.73;;;14.50;99.90;;;;;;5053215;28;20044;-72
2022/09/07 05:07:18;;;;;;;2.47;1.70;;;14.50;99.90;;;;;;5052382;28;20031;-72
2022/09/07 05:09:43;;;;;;;2.55;1.50;;;14.50;99.90;;;;;;5037595;28;20504;-72
2022/09/07 05:12:09;;;;;;;2.30;1.42;;;14.40;99.90;;;;;;5033701;28;20116;-72
2022/09/07 05:14:35;;;;;;;2.63;1.50;;;14.40;99.90;;;;;;5032352;28;20025;-72
2022/09/07 05:17:01;;;;;;;2.90;1.60;;;14.40;99.90;;;;;;5046875;28;20486;-71
2022/09/07 05:19:27;;;;;;;2.88;1.60;;;14.50;99.90;;;;;;5052545;28;20021;-72
2022/09/07 05:21:56;;;;;;;2.78;1.42;;;14.50;99.90;;;;;;5050736;28;20041;-72
2022/09/07 05:24:22;;;;;;;3.00;1.75;;;14.50;99.90;;;;;;5039504;28;20049;-73
2022/09/07 05:26:47;;;;;;;2.88;1.77;;;14.60;99.90;;;;;;5033409;28;20071;-73
2022/09/07 05:29:16;;;;;;;2.55;1.45;;;14.50;99.90;;;;;;5033270;28;20026;-72
2022/09/07 05:31:42;;;;;;;2.63;1.50;;;14.50;99.90;;;;;;5035600;28;20083;-72
2022/09/07 05:34:08;;;;;;;4.82;1.90;;;14.50;99.90;;;;;;5039835;28;20041;-73
2022/09/07 05:36:34;;;;;;;2.78;1.90;;;14.50;99.90;;;;;;5039923;28;20152;-72
2022/09/07 05:39:00;;;;;;;3.22;1.85;;;14.50;99.90;;;;;;5039809;28;20116;-73
2022/09/07 05:41:26;;;;;;;4.13;1.70;;;14.50;99.90;;;;;;5039828;28;20072;-72
2022/09/07 05:43:53;;;;;;;4.43;1.70;;;14.50;99.90;;;;;;5038631;28;20053;-73
2022/09/07 05:46:19;;;;;;;3.85;1.65;;;14.60;99.90;;;;;;5039473;28;20033;-73
2022/09/07 05:48:45;;;;;;;3.35;1.85;;;14.60;99.90;;;;;;5039755;28;20033;-73
2022/09/07 05:51:12;;;;;;;3.97;2.08;;;14.60;99.90;;;;;;5039731;28;20026;-73
2022/09/07 05:53:39;;;;;;;2.72;1.65;;;14.70;99.90;;;;;;5039737;28;20029;-72
2022/09/07 05:56:05;;;;;;;2.83;1.50;;;14.70;99.90;;;;;;5039783;28;20448;-73
2022/09/07 05:58:32;;;;;;;2.83;1.60;;;14.70;99.90;;;;;;5038516;28;20080;-73
2022/09/07 06:00:59;;;;;;;3.35;1.55;;;14.70;99.90;;;;;;5039403;28;20017;-72
2022/09/07 06:03:25;;;;;;;3.78;2.35;;;14.70;99.90;;;;;;5039658;28;20528;-72
2022/09/07 06:06:09;;;;;;;3.40;1.98;;;14.70;99.90;;;;;;5038295;28;20057;-72
2022/09/07 06:08:36;;;;;;;4.50;2.28;;;14.70;99.90;;;;;;5039570;28;20032;-72
2022/09/07 06:11:07;;;;;;;3.47;2.08;;;14.70;99.90;;;;;;5058619;28;20092;-72
2022/09/07 06:13:33;;;;;;;4.35;2.00;;;14.70;99.90;;;;;;5033305;28;20045;-73
2022/09/07 06:16:04;;;;;;;2.60;1.70;;;14.80;99.90;;;;;;5047859;28;20030;-72
2022/09/07 06:18:31;;;;;;;3.23;2.10;;;14.80;99.90;;;;;;5039651;28;20029;-73
2022/09/07 06:21:07;;;;;;;2.50;1.88;;;14.80;99.90;;;;;;5039523;28;20033;-73
2022/09/07 06:23:34;;;;;;;4.50;2.15;;;14.80;99.90;;;;;;5039140;28;20128;-72
2022/09/07 06:26:00;;;;;;;4.28;2.60;;;14.90;99.90;;;;;;5038788;28;20029;-72
2022/09/07 06:28:32;;;;;;;5.63;2.55;;;14.90;99.90;;;;;;5039129;28;20026;-73
2022/09/07 06:31:00;;;;;;;3.13;2.20;;;14.90;99.90;;;;;;5039758;28;20416;-73
2022/09/07 06:33:26;;;;;;;4.30;2.47;;;14.90;99.90;;;;;;5039261;28;20116;-73
2022/09/07 06:36:18;;;;;;;5.18;3.53;;;14.90;99.90;;;;;;5039360;28;20108;-73
2022/09/07 06:38:48;;;;;;;6.72;3.97;;;15.00;99.90;;;;;;5038744;28;20033;-73
2022/09/07 06:41:16;;;;;;;4.60;2.80;;;15.00;99.90;;;;;;5037963;28;20120;-73
2022/09/07 06:43:43;;;;;;;4.75;2.85;;;15.00;99.90;;;;;;5035577;28;20033;-72
2022/09/07 06:46:09;;;;;;;3.53;1.80;;;15.00;99.90;;;;;;5035913;28;20045;-72
2022/09/07 06:48:36;;;;;;;3.63;1.90;;;15.00;99.90;;;;;;5035946;28;20100;-72
2022/09/07 06:51:06;;;;;;;4.82;1.98;;;15.00;99.90;;;;;;5035910;28;20022;-73
2022/09/07 06:53:36;;;;;;;2.38;1.58;;;15.00;99.90;;;;;;5036471;28;20488;-72
2022/09/07 06:56:08;;;;;;;3.00;1.52;;;15.00;99.90;;;;;;5034584;28;20171;-72
2022/09/07 06:58:34;;;;;;;4.25;1.90;;;15.00;99.90;;;;;;5035784;28;20033;-72
2022/09/07 07:01:14;;;;;;;2.10;1.40;;;15.10;99.90;;;;;;5035975;28;20320;-72
2022/09/07 07:03:41;;;;;;;2.13;1.45;;;15.10;99.90;;;;;;5035976;28;20500;-72
2022/09/07 07:06:07;;;;;;;3.70;1.85;;;15.10;99.90;;;;;;5035562;28;20474;-72
2022/09/07 07:08:33;;;;;;;4.22;1.70;;;15.10;99.90;;;;;;5035536;28;20037;-72
2022/09/07 07:11:05;;;;;;;2.67;1.48;;;15.20;99.90;;;;;;5034338;28;20109;-72
2022/09/07 07:13:31;;;;;;;2.45;1.45;;;15.20;99.90;;;;;;5035514;28;20441;-72
2022/09/07 07:16:04;;;;;;;3.45;1.70;;;15.20;99.90;;;;;;5035449;28;20137;-72
2022/09/07 07:18:31;;;;;;;3.42;1.48;;;15.20;99.90;;;;;;5035334;28;20021;-71
2022/09/07 07:20:56;;;;;;;2.30;1.60;;;15.30;99.90;;;;;;5060596;22;20041;-84
2022/09/07 07:23:23;;;;;;;2.97;1.58;;;15.30;99.90;;;;;;5053993;28;20029;-85
2022/09/07 07:25:48;;;;;;;2.65;1.48;;;15.30;99.90;;;;;;5072345;28;20033;-84
2022/09/07 07:28:14;;;;;;;2.88;1.90;;;15.40;99.90;;;;;;5054257;28;20396;-84
2022/09/07 07:30:40;;;;;;;5.25;1.95;;;15.40;99.90;;;;;;5037311;28;20045;-85
2022/09/07 07:33:06;;;;;;;3.83;2.20;;;15.50;99.90;;;;;;5037829;28;20112;-84
2022/09/07 07:35:33;;;;;;;2.58;1.85;;;15.60;99.90;;;;;;5020698;28;20060;-84
2022/09/07 07:37:59;;;;;;;3.58;2.30;;;15.60;99.90;;;;;;5053685;28;20036;-85
2022/09/07 07:40:25;;;;;;;5.38;2.10;;;15.70;99.90;;;;;;5037320;28;20029;-85
2022/09/07 07:42:51;;;;;;;3.95;2.33;;;15.80;99.90;;;;;;5035759;28;20484;-84
2022/09/07 07:45:17;;;;;;;4.32;1.98;;;15.90;99.90;;;;;;5036658;28;20036;-84
2022/09/07 07:47:42;;;;;;;3.38;1.92;;;15.90;99.90;;;;;;5036962;28;20025;-85
2022/09/07 07:50:08;;;;;;;4.55;2.22;;;16.10;99.90;;;;;;5052199;28;20566;-84
2022/09/07 07:52:39;;;;;;;3.60;2.00;;;16.10;99.90;;;;;;5055540;28;20025;-84
2022/09/07 07:55:06;;;;;;;4.13;2.03;;;16.20;99.90;;;;;;5034342;28;20489;-84
2022/09/07 07:57:32;;;;;;;5.70;2.35;;;16.30;99.90;;;;;;5033752;28;20060;-84
2022/09/07 07:59:57;;;;;;;5.20;2.20;;;16.40;99.90;;;;;;5036029;28;20053;-84
2022/09/07 08:02:23;;;;;;;4.70;2.42;;;16.50;99.90;;;;;;5034178;28;20059;-84
2022/09/07 08:04:50;;;;;;;3.35;2.20;;;16.60;99.90;;;;;;5054359;28;20037;-85
2022/09/07 08:07:16;;;;;;;7.03;2.53;;;16.60;99.90;;;;;;5033921;28;20032;-84
2022/09/07 08:09:47;;;;;;;4.68;2.30;;;16.70;99.90;;;;;;5035972;28;20025;-84
2022/09/07 08:12:18;;;;;;;3.33;2.03;;;16.80;99.90;;;;;;5051121;28;20021;-84
2022/09/07 08:14:43;;;;;;;;;;;16.90;99.90;;;;;;5051028;28;20025;-84
2022/09/07 08:17:11;;;;;;;3.65;1.90;;;17.00;99.90;;;;;;5050684;28;19904;-85
2022/09/07 08:19:38;;;;;;;4.57;2.05;;;17.00;99.90;;;;;;5049043;28;20075;-86
2022/09/07 08:22:04;;;;;;;2.75;1.90;;;17.10;99.90;;;;;;5050722;28;20374;-85
2022/09/07 08:24:30;;;;;;;3.83;1.90;;;17.20;99.90;;;;;;5051609;28;20041;-85
2022/09/07 08:26:56;;;;;;;3.63;2.10;;;17.20;99.90;;;;;;5019351;28;20029;-86
2022/09/07 08:29:22;;;;;;;4.28;1.83;;;17.30;99.90;;;;;;5053706;28;20025;-85
2022/09/07 08:31:49;;;;;;;3.83;1.90;;;17.30;99.90;;;;;;5034478;28;20029;-85
2022/09/07 08:34:15;;;;;;;2.25;1.50;;;17.40;99.90;;;;;;5051008;28;20029;-86
2022/09/07 08:36:40;;;;;;;4.35;1.80;;;17.50;99.90;;;;;;5052340;28;20040;-85
2022/09/07 08:39:06;;;;;;;4.53;2.00;;;17.50;99.90;;;;;;5050987;28;20036;-85
2022/09/07 08:41:53;;;;;;;3.47;1.80;;;17.60;99.90;;;;;;5050664;28;20415;-85
2022/09/07 08:44:28;;;;;;;4.00;2.13;;;17.60;99.90;;;;;;5049933;28;20028;-85
2022/09/07 08:46:57;;;;;;;4.25;1.70;;;17.70;99.90;;;;;;5050177;28;20029;-85
2022/09/07 08:49:40;;;;;;;3.63;1.83;;;17.70;99.90;;;;;;5052549;28;20021;-85
2022/09/07 08:52:14;;;;;;;3.90;1.70;;;17.80;99.90;;;;;;5049093;28;20027;-85
2022/09/07 08:54:44;;;;;;;5.13;1.90;;;17.90;99.90;;;;;;5051104;28;20099;-85
2022/09/07 08:57:11;;;;;;;4.45;1.98;;;18.00;99.90;;;;;;5052182;28;20464;-85
2022/09/07 08:59:53;;;;;;;3.72;1.98;;;18.00;99.90;;;;;;5034058;28;20158;-85
2022/09/07 09:02:19;;;;;;;4.00;1.85;;;18.00;99.90;;;;;;5051887;28;20425;-85
2022/09/07 09:04:45;;;;;;;4.57;1.90;;;18.00;99.90;;;;;;5035185;28;20056;-85
2022/09/07 09:07:15;;;;;;;2.83;1.73;;;18.10;99.90;;;;;;5050697;28;20086;-85
2022/09/07 09:09:59;;;;;;;5.23;2.17;;;18.20;99.90;;;;;;5051840;28;20020;-85
2022/09/07 09:12:57;;;;;;;3.42;1.85;;;18.40;99.90;;;;;;5052322;28;20033;-85
2022/09/07 09:15:50;;;;;;;5.20;2.00;;;18.60;99.90;;;;;;5052117;28;20052;-85
2022/09/07 09:18:30;;;;;;;5.93;2.00;;;18.80;99.90;;;;;;5054299;28;20017;-85
2022/09/07 09:20:57;;;;;;;4.35;1.80;;;18.90;99.90;;;;;;5052027;28;20041;-84
2022/09/07 09:23:26;;;;;;;4.13;2.05;;;19.00;99.90;;;;;;5052306;28;20029;-84
2022/09/07 09:25:55;;;;;;;3.88;1.70;;;19.20;99.90;;;;;;5053174;28;20451;-84
2022/09/07 09:28:21;;;;;;;2.95;1.58;;;19.20;99.90;;;;;;5051021;28;20021;-85
2022/09/07 09:30:47;;;;;;;4.28;1.90;;;19.40;99.90;;;;;;5052109;28;20079;-84
2022/09/07 09:33:22;;;;;;;2.85;1.92;;;19.40;99.90;;;;;;5032136;28;20021;-84
2022/09/07 09:35:50;;;;;;;2.33;1.60;;;19.50;99.90;;;;;;5050421;28;20499;-84
2022/09/07 09:38:30;;;;;;;4.68;2.17;;;19.60;99.90;;;;;;5065566;28;20024;-84
2022/09/07 09:41:07;;;;;;;4.68;2.08;;;19.80;99.90;;;;;;5048774;28;20021;-84
2022/09/07 09:43:44;;;;;;;5.15;1.70;;;20.00;99.90;;;;;;5066890;28;20037;-84
2022/09/07 09:46:34;;;;;;;4.32;1.80;;;20.10;99.90;;;;;;5051891;28;20143;-84
2022/09/07 09:49:05;;;;;;;2.60;1.50;;;20.20;99.90;;;;;;5052281;28;20021;-84
2022/09/07 09:51:39;;;;;;;3.55;1.60;;;20.30;99.90;;;;;;5053208;28;20108;-85
2022/09/07 09:54:18;;;;;;;3.70;1.70;;;20.40;99.90;;;;;;5053351;28;20033;-84
2022/09/07 09:56:46;;;;;;;4.47;1.73;;;20.60;99.90;;;;;;5053223;28;20021;-85
2022/09/07 09:59:21;;;;;;;2.22;1.60;;;20.70;99.90;;;;;;5050609;28;20574;-84
2022/09/07 10:01:49;;;;;;;3.88;1.73;;;20.90;99.90;;;;;;5053467;28;20481;-84
2022/09/07 10:04:24;;;;;;;2.40;1.50;;;21.10;99.90;;;;;;5053102;28;20036;-84
2022/09/07 10:06:52;;;;;;;4.68;1.65;;;21.40;99.90;;;;;;5052276;28;20064;-84
2022/09/07 10:09:21;;;;;;;6.95;2.25;;;21.60;99.90;;;;;;5049977;28;20029;-85
2022/09/07 10:11:53;;;;;;;4.10;2.67;;;21.80;99.90;;;;;;5051333;28;20452;-84
2022/09/07 10:14:33;;;;;;;2.72;1.90;;;21.80;99.90;;;;;;5050607;28;20096;-84
2022/09/07 10:17:00;;;;;;;3.28;2.00;;;21.80;99.90;;;;;;5052636;28;20018;-84
2022/09/07 10:19:31;;;;;;;5.97;2.20;;;21.80;99.90;;;;;;5055374;28;20111;-84
2022/09/07 10:21:59;;;;;;;4.28;1.95;;;21.90;99.90;;;;;;5050200;28;20021;-84
2022/09/07 10:24:30;;;;;;;3.17;2.00;;;21.90;99.90;;;;;;5051975;28;20021;-84
2022/09/07 10:26:56;;;;;;;2.97;1.88;;;21.90;99.90;;;;;;5054582;28;20602;-85
2022/09/07 10:29:22;;;;;;;2.70;1.85;;;22.00;99.90;;;;;;5054906;28;20032;-85
2022/09/07 10:31:54;;;;;;;3.92;1.90;;;22.00;99.90;;;;;;5053866;28;20025;-84
2022/09/07 10:34:49;;;;;;;3.65;1.83;;;22.00;99.90;;;;;;5054120;28;20021;-85
2022/09/07 10:37:29;;;;;;;3.10;1.83;;;22.10;99.90;;;;;;5049247;28;20438;-84
2022/09/07 10:40:13;;;;;;;3.55;2.17;;;22.10;99.90;;;;;;5054039;28;20472;-85
2022/09/07 10:42:47;;;;;;;4.00;2.00;;;22.20;99.90;;;;;;5053209;28;20021;-84
2022/09/07 10:45:22;;;;;;;2.38;1.58;;;22.30;99.90;;;;;;5053321;28;20025;-84
2022/09/07 10:48:02;;;;;;;2.90;1.75;;;22.40;99.90;;;;;;5054992;28;20021;-84
2022/09/07 10:50:48;;;;;;;3.10;1.88;;;22.50;99.90;;;;;;5054599;28;20041;-84
2022/09/07 10:53:23;;;;;;;4.72;1.80;;;22.50;99.90;;;;;;5053548;28;20020;-84
2022/09/07 10:56:20;;;;;;;3.05;1.85;;;22.50;99.90;;;;;;5049817;28;20120;-84
2022/09/07 10:59:15;;;;;;;3.78;1.83;;;22.60;99.90;;;;;;5047092;28;20069;-84
2022/09/07 11:01:49;;;;;;;2.80;1.80;;;22.60;99.90;;;;;;5054437;28;20025;-84
2022/09/07 11:04:24;;;;;;;3.00;2.00;;;22.60;99.90;;;;;;5053501;28;20074;-84
2022/09/07 11:06:57;;;;;;;3.17;1.90;;;22.70;99.90;;;;;;5054828;28;20036;-84
2022/09/07 11:09:33;;;;;;;2.85;2.20;;;22.70;99.90;;;;;;5054286;28;20021;-84
2022/09/07 11:12:02;;;;;;;4.90;2.10;;;22.80;99.90;;;;;;5054335;28;20025;-85
2022/09/07 11:14:34;;;;;;;2.97;1.77;;;22.90;99.90;;;;;;5053988;28;20492;-85
2022/09/07 11:17:11;;;;;;;3.25;1.95;;;22.90;99.90;;;;;;5054498;28;20024;-84
2022/09/07 11:19:44;;;;;;;2.63;1.58;;;22.90;99.90;;;;;;5053492;28;20028;-84
2022/09/07 11:22:46;;;;;;;3.85;1.90;;;22.80;99.90;;;;;;5052562;28;20029;-85
2022/09/07 11:25:39;;;;;;;2.97;1.58;;;22.80;99.90;;;;;;5049626;28;20033;-84
2022/09/07 11:28:19;;;;;;;3.30;1.63;;;22.80;99.90;;;;;;5054063;28;20089;-84
2022/09/07 11:30:50;;;;;;;3.83;1.60;;;22.80;99.90;;;;;;5055303;28;20104;-84
2022/09/07 11:33:25;;;;;;;2.92;1.70;;;22.80;99.90;;;;;;5048289;28;20374;-85
2022/09/07 11:36:11;;;;;;;5.07;1.90;;;22.80;99.90;;;;;;5054057;28;20025;-84
2022/09/07 11:38:52;;;;;;;3.35;1.55;;;22.80;99.90;;;;;;5054983;28;20028;-84
2022/09/07 11:41:17;;;;;;;3.03;1.60;;;22.80;99.90;;;;;;5053339;28;20025;-84
2022/09/07 11:44:08;;;;;;;4.10;1.80;;;22.80;99.90;;;;;;5053904;28;20105;-85
2022/09/07 11:46:46;;;;;;;3.95;1.75;;;22.80;99.50;;;;;;5053398;28;20025;-84
2022/09/07 11:49:19;;;;;;;4.80;1.60;;;22.90;99.90;;;;;;5054759;28;20025;-84
2022/09/07 11:52:02;;;;;;;2.58;1.35;;;22.90;99.90;;;;;;5054483;28;20056;-84
2022/09/07 11:54:34;;;;;;;3.97;1.30;;;23.00;99.00;;;;;;5047141;28;20017;-84
2022/09/07 11:57:21;;;;;;;3.10;1.42;;;23.10;99.40;;;;;;5051326;28;20029;-85
2022/09/07 11:59:53;;;;;;;3.33;1.40;;;23.10;99.50;;;;;;5051247;28;20451;-85
2022/09/07 12:02:35;;;;;;;4.35;1.65;;;23.20;99.00;;;;;;5053564;28;20017;-84
2022/09/07 12:05:07;;;;;;;4.53;1.58;;;23.20;98.10;;;;;;5052599;28;20119;-84
2022/09/07 12:08:05;;;;;;;3.67;1.30;;;23.30;98.20;;;;;;5053684;28;20472;-84
2022/09/07 12:10:34;;;;;;;3.80;1.52;;;23.30;98.70;;;;;;5050558;28;20052;-83
2022/09/07 12:13:25;;;;;;;7.38;2.67;;;23.40;98.50;;;;;;5052426;28;20021;-84
2022/09/07 12:16:09;;;;;;;;;;;23.40;99.00;;;;;;5053970;28;20396;-84
2022/09/07 12:19:08;;;;;;;4.97;1.80;;;23.30;98.70;;;;;;5052890;28;19909;-84
2022/09/07 12:21:41;;;;;;;3.00;1.40;;;23.30;99.10;;;;;;5053400;28;20032;-84
2022/09/07 12:24:35;;;;;;;2.78;1.23;;;23.30;98.80;;;;;;5052793;28;20031;-84
2022/09/07 12:27:09;;;;;;;2.92;1.38;;;23.30;99.30;;;;;;5051983;28;20423;-85
2022/09/07 12:29:35;;;;;;;4.97;1.40;;;23.30;99.00;;;;;;5053045;28;20037;-84
2022/09/07 12:32:02;;;;;;;7.20;1.60;;;23.30;98.60;;;;;;5049320;28;20492;-84
2022/09/07 12:34:31;;;;;;;10.02;3.20;;;23.30;98.20;;;;;;5052136;28;20028;-85
2022/09/07 12:37:02;;;;;;;6.85;2.13;;;23.30;98.70;;;;;;5053343;28;20488;-84
2022/09/07 12:39:28;;;;;;;3.83;2.15;;;23.30;98.90;;;;;;5053086;28;20032;-84
2022/09/07 12:42:09;;;;;;;4.22;1.83;;;23.30;98.80;;;;;;5052593;28;20027;-84
2022/09/07 12:44:36;;;;;;;2.38;1.17;;;23.30;98.20;;;;;;5052981;28;20028;-84
2022/09/07 12:47:10;;;;;;;3.05;1.55;;;23.30;99.10;;;;;;5053352;28;20033;-84
2022/09/07 12:49:57;;;;;;;3.15;1.30;;;23.30;99.90;;;;;;5049626;28;20023;-83
2022/09/07 12:52:29;;;;;;;4.32;1.08;;;23.30;99.30;;;;;;5047103;28;20074;-83
2022/09/07 12:55:18;;;;;;;2.97;1.20;;;23.30;99.30;;;;;;5048689;28;20469;-83
2022/09/07 12:57:53;;;;;;;2.97;1.50;;;23.40;99.50;;;;;;5049338;28;20063;-83
2022/09/07 13:00:42;;;;;;;3.83;1.70;;;23.50;99.90;;;;;;5050696;28;20049;-83
2022/09/07 13:03:44;;;;;;;3.55;1.50;;;23.60;99.90;;;;;;5041897;28;20100;-84
2022/09/07 13:06:26;;;;;;;2.90;1.38;;;23.80;99.50;;;;;;5031530;28;20029;-84
2022/09/07 13:09:22;;;;;;;2.55;1.30;;;24.00;99.90;;;;;;5062562;28;20028;-84
2022/09/07 13:11:48;;;;;;;2.80;1.42;;;24.20;99.90;;;;;;5049647;28;20020;-84
2022/09/07 13:14:13;;;;;;;3.95;1.70;;;24.30;98.50;;;;;;5034582;28;20037;-84